Corpus Christi International Airport
KCRP : now visible

Airfield :











YOU CAN JOIN US ON...

 
LOGIN :

Register | Disclaimer

   EN    FR    IT 

 









Legend :    VFR   Marginal VFR   IFR   Intensive IFR   Very Intensive IFR
Visi :
Ceiling :
>= 8 km
>= 3000ft
5 to 8 km
1000 to 3000 ft
1500m to 5 km
500 to 1000 ft
800 to 1500m
200 to 500 ft
< 800m
< 200 ft
Symbols :   Thunderstorms  Fog  Heavy snow  Heavy precipitations  Wind > 20 kt







- Airport Elevation : 44 ft
- IATA code : CRP


KCRP - Corpus Christi International

CURRENT METAR :
  • 260351Z 17008KT 10SM SCT250 28/26 A2980 RMK AO2 SLP091 T02780256 $

EXPIRED METARs :
  • 260251Z 14008KT 10SM FEW011 SCT180 BKN250 28/26 A2979 RMK AO2 SLP085 T02780261 51011 $
  • 260151Z 15011KT 10SM FEW011 BKN180 OVC250 28/26 A2978 RMK AO2 SLP084 T02830261 $

TAF KCRP
Valid from the 26 at 00:00 until the 27 at 00:00 UTC


252320Z 2600/2624 14011KT P6SM FEW025 SCT100 BKN200
FM260200 17007KT P6SM FEW020 BKN200
FM261500 16015KT P6SM SCT250
No reported NOTAMs for that airfield.



MET'MAP, your aeronautical weather chart ! - Copyright ORBIFLY December 2007 - Disclaimer

ORBIFLY MET'MAP TEAM :

Programming & Development : Alexandra Zaïnal
Concept & Development : Baudouin d'Aumeries
Co-Development & Prog : Marc-Olivier Méhu
Technical & hardware support : Manuel Goepfert

Contact : metmap@orbifly.com




SOURCES & CREDITS :

   NOAA       Earth
Advisory